OCN4AP EDDM-LGMK
Flight info
| Callsign | OCN4AP |
|---|---|
| Flight time | N/A |
| Altitude | 37000 |
| Route | ROTAX4E ROTAX L603 LATLO DCT OBEDI DCT KFT DCT MAGAM DCT TIVNU DCT KEB DCT MEDUX UM867 KOGAT DCT ERANA DCT TSL UL617 SKP UN137 AGAPU |
| Aircraft | A320/M-SDE3FGHIRWY/LB1 |
Departure
| Time | 2026-05-04 13:06 |
|---|---|
| Airport | Munich Airport (EDDM) |
Arrival
| Time | N/A |
|---|---|
| Airport | Mykonos Island National Airport (LGMK) |
| Time | Latitude | Longitude | Altitude | Speed | Heading |
|---|---|---|---|---|---|
| 2026-05-04 12:36 | 48.35082 | 11.80928 | 1486 ft | 0 kts | 173° |
| 2026-05-04 12:53 | 48.35083 | 11.80928 | 1485 ft | 1 kts | 173° |
| 2026-05-04 12:53 | 48.35096 | 11.80926 | 1472 ft | 3 kts | 173° |
| 2026-05-04 12:53 | 48.35116 | 11.80922 | 1478 ft | 3 kts | 173° |
| 2026-05-04 12:54 | 48.35136 | 11.80919 | 1485 ft | 3 kts | 173° |
| 2026-05-04 12:54 | 48.35155 | 11.80918 | 1472 ft | 3 kts | 201° |
| 2026-05-04 12:54 | 48.35170 | 11.80933 | 1480 ft | 3 kts | 248° |
| 2026-05-04 12:54 | 48.35173 | 11.80950 | 1473 ft | 2 kts | 263° |
| 2026-05-04 12:55 | 48.35175 | 11.80972 | 1482 ft | 1 kts | 263° |
| 2026-05-04 12:55 | 48.35175 | 11.80975 | 1482 ft | 0 kts | 263° |
| 2026-05-04 12:57 | 48.35173 | 11.80955 | 1473 ft | 8 kts | 261° |
| 2026-05-04 12:57 | 48.35166 | 11.80875 | 1482 ft | 12 kts | 263° |
| 2026-05-04 12:57 | 48.35158 | 11.80762 | 1481 ft | 10 kts | 264° |
| 2026-05-04 12:58 | 48.35151 | 11.80664 | 1482 ft | 9 kts | 264° |
| 2026-05-04 12:58 | 48.35144 | 11.80567 | 1485 ft | 13 kts | 263° |
| 2026-05-04 12:58 | 48.35128 | 11.80373 | 1477 ft | 18 kts | 263° |
| 2026-05-04 12:58 | 48.35109 | 11.80198 | 1483 ft | 16 kts | 264° |
| 2026-05-04 12:59 | 48.35097 | 11.80044 | 1474 ft | 14 kts | 263° |
| 2026-05-04 12:59 | 48.35084 | 11.79885 | 1472 ft | 18 kts | 263° |
| 2026-05-04 12:59 | 48.35070 | 11.79710 | 1483 ft | 15 kts | 264° |
| 2026-05-04 12:59 | 48.35055 | 11.79564 | 1475 ft | 13 kts | 243° |
| 2026-05-04 13:00 | 48.34949 | 11.79543 | 1481 ft | 20 kts | 172° |
| 2026-05-04 13:00 | 48.34818 | 11.79557 | 1485 ft | 17 kts | 203° |
| 2026-05-04 13:00 | 48.34777 | 11.79387 | 1482 ft | 20 kts | 263° |
| 2026-05-04 13:00 | 48.34761 | 11.79188 | 1485 ft | 18 kts | 263° |
| 2026-05-04 13:01 | 48.34747 | 11.78993 | 1485 ft | 22 kts | 263° |
| 2026-05-04 13:01 | 48.34729 | 11.78749 | 1485 ft | 24 kts | 264° |
| 2026-05-04 13:01 | 48.34708 | 11.78491 | 1478 ft | 25 kts | 263° |
| 2026-05-04 13:01 | 48.34688 | 11.78225 | 1485 ft | 26 kts | 264° |
| 2026-05-04 13:02 | 48.34666 | 11.77948 | 1476 ft | 27 kts | 263° |
| 2026-05-04 13:02 | 48.34644 | 11.77657 | 1485 ft | 28 kts | 264° |
| 2026-05-04 13:02 | 48.34622 | 11.77368 | 1478 ft | 22 kts | 263° |
| 2026-05-04 13:02 | 48.34606 | 11.77163 | 1480 ft | 22 kts | 263° |
| 2026-05-04 13:03 | 48.34587 | 11.76935 | 1485 ft | 22 kts | 263° |
| 2026-05-04 13:03 | 48.34570 | 11.76706 | 1485 ft | 22 kts | 264° |
| 2026-05-04 13:03 | 48.34555 | 11.76472 | 1482 ft | 23 kts | 264° |
| 2026-05-04 13:03 | 48.34534 | 11.76229 | 1479 ft | 24 kts | 262° |
| 2026-05-04 13:04 | 48.34514 | 11.75976 | 1485 ft | 25 kts | 264° |
| 2026-05-04 13:04 | 48.34493 | 11.75801 | 1471 ft | 15 kts | 237° |
| 2026-05-04 13:04 | 48.34409 | 11.75795 | 1484 ft | 11 kts | 164° |
| 2026-05-04 13:04 | 48.34359 | 11.75869 | 1480 ft | 11 kts | 120° |
| 2026-05-04 13:05 | 48.34312 | 11.76035 | 1481 ft | 23 kts | 112° |
| 2026-05-04 13:05 | 48.34252 | 11.76247 | 1483 ft | 18 kts | 115° |
| 2026-05-04 13:05 | 48.34197 | 11.76426 | 1478 ft | 19 kts | 114° |
| 2026-05-04 13:05 | 48.34186 | 11.76630 | 1485 ft | 22 kts | 82° |
| 2026-05-04 13:06 | 48.34228 | 11.77132 | 1483 ft | 82 kts | 83° |
| 2026-05-04 13:06 | 48.34319 | 11.78298 | 1486 ft | 140 kts | 83° |
| 2026-05-04 13:06 | 48.34445 | 11.79930 | 1775 ft | 162 kts | 82° |
| 2026-05-04 13:06 | 48.34544 | 11.81643 | 2495 ft | 167 kts | 86° |
| 2026-05-04 13:07 | 48.34649 | 11.83459 | 3051 ft | 181 kts | 81° |
| 2026-05-04 13:07 | 48.34821 | 11.85405 | 3596 ft | 192 kts | 81° |
| 2026-05-04 13:07 | 48.35018 | 11.87475 | 4100 ft | 210 kts | 82° |
| 2026-05-04 13:07 | 48.35204 | 11.89756 | 4572 ft | 230 kts | 85° |
| 2026-05-04 13:08 | 48.35375 | 11.92239 | 5152 ft | 244 kts | 90° |
| 2026-05-04 13:08 | 48.35027 | 11.94783 | 5782 ft | 260 kts | 114° |
| 2026-05-04 13:08 | 48.34198 | 11.97274 | 6492 ft | 272 kts | 127° |
| 2026-05-04 13:08 | 48.32818 | 11.99248 | 7324 ft | 276 kts | 144° |
| 2026-05-04 13:09 | 48.31291 | 12.01029 | 8216 ft | 280 kts | 143° |
| 2026-05-04 13:09 | 48.29786 | 12.02911 | 9122 ft | 284 kts | 142° |
| 2026-05-04 13:09 | 48.28275 | 12.04864 | 10052 ft | 286 kts | 142° |
| 2026-05-04 13:09 | 48.26719 | 12.06892 | 10500 ft | 307 kts | 142° |
| 2026-05-04 13:10 | 48.25045 | 12.09065 | 10799 ft | 329 kts | 142° |
| 2026-05-04 13:10 | 48.23286 | 12.11339 | 11428 ft | 337 kts | 141° |
| 2026-05-04 13:10 | 48.21501 | 12.13640 | 12169 ft | 342 kts | 142° |
| 2026-05-04 13:10 | 48.19659 | 12.16009 | 12959 ft | 345 kts | 142° |
| 2026-05-04 13:11 | 48.17823 | 12.18365 | 13706 ft | 349 kts | 142° |
| 2026-05-04 13:11 | 48.16005 | 12.20693 | 14345 ft | 353 kts | 142° |
| 2026-05-04 13:11 | 48.14107 | 12.23114 | 15005 ft | 357 kts | 142° |
| 2026-05-04 13:11 | 48.12200 | 12.25536 | 15659 ft | 360 kts | 142° |
| 2026-05-04 13:12 | 48.10277 | 12.27978 | 16302 ft | 365 kts | 142° |
| 2026-05-04 13:12 | 48.08336 | 12.30444 | 16953 ft | 369 kts | 142° |
| 2026-05-04 13:12 | 48.06364 | 12.32943 | 17571 ft | 372 kts | 143° |
| 2026-05-04 13:12 | 48.04375 | 12.35462 | 18189 ft | 376 kts | 142° |
| 2026-05-04 13:13 | 48.02366 | 12.38006 | 18699 ft | 380 kts | 142° |
| 2026-05-04 13:13 | 48.00344 | 12.40567 | 19235 ft | 383 kts | 142° |
| 2026-05-04 13:13 | 47.98297 | 12.43154 | 19775 ft | 386 kts | 142° |
| 2026-05-04 13:13 | 47.96231 | 12.45768 | 20299 ft | 389 kts | 142° |
| 2026-05-04 13:14 | 47.94126 | 12.48431 | 20822 ft | 392 kts | 142° |
| 2026-05-04 13:14 | 47.92069 | 12.51028 | 21313 ft | 396 kts | 142° |
| 2026-05-04 13:14 | 47.89955 | 12.53686 | 21818 ft | 399 kts | 142° |
| 2026-05-04 13:14 | 47.87875 | 12.56296 | 22293 ft | 402 kts | 142° |
| 2026-05-04 13:15 | 47.85726 | 12.58990 | 22770 ft | 405 kts | 142° |
| 2026-05-04 13:15 | 47.83561 | 12.61703 | 23244 ft | 409 kts | 142° |
| 2026-05-04 13:15 | 47.81377 | 12.64439 | 23673 ft | 412 kts | 142° |
| 2026-05-04 13:15 | 47.79178 | 12.67196 | 24057 ft | 415 kts | 142° |
| 2026-05-04 13:16 | 47.76962 | 12.69970 | 24441 ft | 417 kts | 142° |
| 2026-05-04 13:16 | 47.74731 | 12.72759 | 24822 ft | 420 kts | 142° |
| 2026-05-04 13:16 | 47.72487 | 12.75557 | 25182 ft | 423 kts | 142° |
| 2026-05-04 13:16 | 47.70226 | 12.78372 | 25531 ft | 425 kts | 142° |
| 2026-05-04 13:17 | 47.67980 | 12.81258 | 25885 ft | 428 kts | 137° |
| 2026-05-04 13:17 | 47.65857 | 12.84397 | 26271 ft | 431 kts | 136° |
| 2026-05-04 13:17 | 47.63737 | 12.87543 | 26660 ft | 434 kts | 137° |
| 2026-05-04 13:17 | 47.61593 | 12.90722 | 27025 ft | 436 kts | 136° |
| 2026-05-04 13:18 | 47.59437 | 12.93912 | 27388 ft | 439 kts | 137° |
| 2026-05-04 13:18 | 47.57269 | 12.97112 | 27749 ft | 441 kts | 137° |
| 2026-05-04 13:18 | 47.55085 | 13.00331 | 28121 ft | 444 kts | 137° |
| 2026-05-04 13:18 | 47.52893 | 13.03559 | 28461 ft | 446 kts | 136° |
| 2026-05-04 13:19 | 47.50684 | 13.06807 | 28799 ft | 449 kts | 137° |
| 2026-05-04 13:19 | 47.49184 | 13.09012 | 29034 ft | 450 kts | 137° |
| 2026-05-04 13:19 | 47.46234 | 13.13343 | 29463 ft | 453 kts | 137° |
| 2026-05-04 13:19 | 47.43989 | 13.16634 | 29765 ft | 455 kts | 136° |
| 2026-05-04 13:20 | 47.42498 | 13.18816 | 29956 ft | 456 kts | 137° |
| 2026-05-04 13:20 | 47.40236 | 13.22119 | 30231 ft | 459 kts | 137° |
| 2026-05-04 13:20 | 47.37961 | 13.25438 | 30503 ft | 460 kts | 137° |
| 2026-05-04 13:20 | 47.35646 | 13.28808 | 30762 ft | 462 kts | 137° |
| 2026-05-04 13:21 | 47.33355 | 13.32147 | 31018 ft | 464 kts | 136° |
| 2026-05-04 13:21 | 47.31245 | 13.35671 | 31380 ft | 464 kts | 131° |
| 2026-05-04 13:21 | 47.29172 | 13.39312 | 31740 ft | 463 kts | 131° |
| 2026-05-04 13:21 | 47.27102 | 13.42936 | 32106 ft | 462 kts | 131° |
| 2026-05-04 13:22 | 47.25032 | 13.46548 | 32479 ft | 461 kts | 132° |
| 2026-05-04 13:22 | 47.22961 | 13.50154 | 32825 ft | 460 kts | 132° |
| 2026-05-04 13:22 | 47.20894 | 13.53744 | 33164 ft | 460 kts | 132° |
| 2026-05-04 13:22 | 47.18826 | 13.57335 | 33477 ft | 459 kts | 132° |
| 2026-05-04 13:23 | 47.16764 | 13.60911 | 33788 ft | 459 kts | 132° |
| 2026-05-04 13:23 | 47.14702 | 13.64484 | 34071 ft | 458 kts | 132° |
| 2026-05-04 13:23 | 47.12615 | 13.68098 | 34290 ft | 458 kts | 132° |
| 2026-05-04 13:23 | 47.10548 | 13.71670 | 34577 ft | 458 kts | 132° |
| 2026-05-04 13:24 | 47.08529 | 13.75157 | 34847 ft | 458 kts | 132° |
| 2026-05-04 13:24 | 47.06463 | 13.78725 | 35141 ft | 458 kts | 133° |
| 2026-05-04 13:24 | 47.04399 | 13.82281 | 35422 ft | 457 kts | 133° |
| 2026-05-04 13:25 | 47.00279 | 13.89354 | 35961 ft | 456 kts | 133° |
| 2026-05-04 13:25 | 46.98193 | 13.92929 | 36196 ft | 455 kts | 133° |
| 2026-05-04 13:25 | 46.96133 | 13.96457 | 36444 ft | 454 kts | 133° |
| 2026-05-04 13:25 | 46.94078 | 13.99973 | 36663 ft | 454 kts | 133° |
| 2026-05-04 13:26 | 46.92021 | 14.03486 | 36850 ft | 454 kts | 133° |
| 2026-05-04 13:26 | 46.89964 | 14.06993 | 37004 ft | 454 kts | 133° |
| 2026-05-04 13:26 | 46.85858 | 14.13984 | 37024 ft | 453 kts | 132° |
| 2026-05-04 13:27 | 46.81753 | 14.20969 | 37028 ft | 453 kts | 133° |
| 2026-05-04 13:27 | 46.77648 | 14.27943 | 37030 ft | 453 kts | 132° |
| 2026-05-04 13:28 | 46.73528 | 14.34909 | 37029 ft | 453 kts | 133° |
| 2026-05-04 13:28 | 46.69402 | 14.41844 | 37026 ft | 453 kts | 133° |
| 2026-05-04 13:29 | 46.65269 | 14.48772 | 37026 ft | 453 kts | 133° |
| 2026-05-04 13:29 | 46.61151 | 14.55728 | 37027 ft | 454 kts | 131° |
| 2026-05-04 13:30 | 46.57191 | 14.62903 | 37029 ft | 455 kts | 129° |
| 2026-05-04 13:30 | 46.53302 | 14.70162 | 37030 ft | 455 kts | 129° |
| 2026-05-04 13:31 | 46.49375 | 14.77391 | 37036 ft | 456 kts | 130° |
| 2026-05-04 13:31 | 46.45404 | 14.84575 | 37036 ft | 456 kts | 130° |
| 2026-05-04 13:32 | 46.41424 | 14.91726 | 37032 ft | 456 kts | 130° |
| 2026-05-04 13:32 | 46.37422 | 14.98900 | 37032 ft | 457 kts | 130° |
| 2026-05-04 13:33 | 46.33413 | 15.06117 | 37034 ft | 457 kts | 130° |
| 2026-05-04 13:33 | 46.29425 | 15.13304 | 37031 ft | 458 kts | 130° |
| 2026-05-04 13:34 | 46.25424 | 15.20466 | 37034 ft | 458 kts | 130° |
| 2026-05-04 13:34 | 46.21326 | 15.27515 | 37031 ft | 458 kts | 134° |
| 2026-05-04 13:35 | 46.14655 | 15.37341 | 37047 ft | 457 kts | 136° |
| 2026-05-04 13:36 | 46.10163 | 15.43826 | 37054 ft | 457 kts | 135° |
| 2026-05-04 13:36 | 46.05731 | 15.50397 | 37061 ft | 457 kts | 135° |
| 2026-05-04 13:37 | 46.01326 | 15.56982 | 37060 ft | 457 kts | 135° |
| 2026-05-04 13:37 | 45.99865 | 15.59163 | 37061 ft | 457 kts | 135° |